Svanen — LKXK — position and weather

sailwx.info

Track history (hours):
 
Tides and Currents Weather Stations Pressure Air Temp Water Temp Dewpoint Dewpoint Depression Visibility Wind Speed Wind Dir Waves Ship Positions

Svanen (Norway)

Ship's website: http://www.svanen.no/english/english.php1

Last reported at 2019-Aug-24 06:29 UTC. Time now 2019-Aug-24 06:41 UTC.
Position N 59°54' E 010°42'.

Length 27 m; draft 2.8 m.

Type: Sailing vessel. MMSI: 259173000.

Date/timePositionNaut miles runAvg speedWind from/ knotsBaromVisibWave heightAir tempDewpointWater temp
2019-Aug-24 06:29N 59°54' E 010°42'0 0.0
2019-Aug-24 05:59N 59°54' E 010°42'0 0.0
2019-Aug-24 05:29N 59°54' E 010°42'0 0.0
2019-Aug-24 04:59N 59°54' E 010°42'0 0.0
2019-Aug-24 04:29N 59°54' E 010°42'0 0.0
2019-Aug-24 03:59N 59°54' E 010°42'0 0.0
2019-Aug-24 03:29N 59°54' E 010°42'0 0.0
2019-Aug-24 02:59N 59°54' E 010°42'0 0.0
2019-Aug-24 02:28N 59°54' E 010°42'0 0.0
2019-Aug-24 01:58N 59°54' E 010°42'0 0.0
2019-Aug-24 01:29N 59°54' E 010°42'0 0.0
2019-Aug-24 00:59N 59°54' E 010°42'0 0.0
2019-Aug-24 00:28N 59°54' E 010°42'0 0.0
2019-Aug-23 23:59N 59°54' E 010°42'0 0.0
2019-Aug-23 23:28N 59°54' E 010°42'0 0.0
2019-Aug-23 22:59N 59°54' E 010°42'0 0.0
2019-Aug-23 22:28N 59°54' E 010°42'0 0.0
2019-Aug-23 21:58N 59°54' E 010°42'0 0.0
2019-Aug-23 21:28N 59°54' E 010°42'0 0.0
2019-Aug-23 20:58N 59°54' E 010°42'0 0.0
2019-Aug-23 20:28N 59°54' E 010°42'0 0.0
2019-Aug-23 19:58N 59°54' E 010°42'0 0.0
2019-Aug-23 19:29N 59°54' E 010°42'0 0.0
2019-Aug-23 18:59N 59°54' E 010°42'0 0.0
2019-Aug-23 18:28N 59°54' E 010°42'0 0.0
2019-Aug-23 17:58N 59°54' E 010°42'0 0.0
2019-Aug-23 17:29N 59°54' E 010°42'0 0.0
2019-Aug-23 16:58N 59°54' E 010°42'0 0.0
2019-Aug-23 16:28N 59°54' E 010°42'0 0.0
2019-Aug-23 15:59N 59°54' E 010°42'0 0.0
2019-Aug-23 15:28N 59°54' E 010°42'0 0.0
2019-Aug-23 14:59N 59°54' E 010°42'0 0.0
2019-Aug-23 14:28N 59°54' E 010°42'0 0.0
2019-Aug-23 13:59N 59°54' E 010°42'0 0.0
2019-Aug-23 13:29N 59°54' E 010°42'0 0.0
2019-Aug-23 12:59N 59°54' E 010°42'0 0.2
2019-Aug-23 12:30N 59°54' E 010°42'3 5.3
2019-Aug-23 12:00N 59°52' E 010°39'4 7.0
2019-Aug-23 11:30N 59°49' E 010°36'4 7.3
2019-Aug-23 11:00N 59°45' E 010°35'4 7.1
2019-Aug-23 10:30N 59°42' E 010°36'2 3.0
2019-Aug-23 10:00N 59°40' E 010°36'0 0.6
2019-Aug-23 09:30N 59°40' E 010°36'1 1.8
2019-Aug-23 09:00N 59°41' E 010°34'1 2.2
2019-Aug-23 08:30N 59°41' E 010°32'2 3.8
2019-Aug-23 08:00N 59°40' E 010°35'0 0.9
2019-Aug-23 07:28N 59°40' E 010°36'0 0.0
2019-Aug-23 07:00N 59°40' E 010°36'0 0.0
2019-Aug-23 06:30N 59°40' E 010°36'0 0.0
2019-Aug-23 05:57N 59°40' E 010°36'0 0.0
2019-Aug-23 05:30N 59°40' E 010°36'0 0.0
2019-Aug-23 05:00N 59°40' E 010°36'0 0.0
2019-Aug-23 04:27N 59°40' E 010°36'0 0.0
2019-Aug-23 03:57N 59°40' E 010°36'0 0.0
2019-Aug-23 03:30N 59°40' E 010°36'0 0.0
2019-Aug-23 02:57N 59°40' E 010°36'0 0.0
2019-Aug-23 02:28N 59°40' E 010°36'0 0.0
2019-Aug-23 01:57N 59°40' E 010°36'0 0.0
2019-Aug-23 01:27N 59°40' E 010°36'0 0.0
2019-Aug-23 01:01N 59°40' E 010°36'0 0.0
2019-Aug-23 00:30N 59°40' E 010°36'0 0.0
2019-Aug-23 00:00N 59°40' E 010°36'0 0.0
2019-Aug-22 23:31N 59°40' E 010°36'0 0.0
2019-Aug-22 22:57N 59°40' E 010°36'0 0.0
2019-Aug-22 22:27N 59°40' E 010°36'0 0.0
2019-Aug-22 22:00N 59°40' E 010°36'0 0.0
2019-Aug-22 21:28N 59°40' E 010°36'0 0.0
2019-Aug-22 20:57N 59°40' E 010°36'0 0.0
2019-Aug-22 20:30N 59°40' E 010°36'0 0.0
2019-Aug-22 19:58N 59°40' E 010°36'0 0.0
2019-Aug-22 19:28N 59°40' E 010°36'0 0.0
2019-Aug-22 18:57N 59°40' E 010°36'0 0.0
2019-Aug-22 18:28N 59°40' E 010°36'0 0.0
2019-Aug-22 18:00N 59°40' E 010°36'0 0.0
2019-Aug-22 17:30N 59°40' E 010°36'0 0.0
2019-Aug-22 17:00N 59°40' E 010°36'0 0.0
2019-Aug-22 16:27N 59°40' E 010°36'0 0.0
2019-Aug-22 16:00N 59°40' E 010°36'0 0.0
2019-Aug-22 15:27N 59°40' E 010°36'0 0.0
2019-Aug-22 15:00N 59°40' E 010°36'0 0.0
2019-Aug-22 14:30N 59°40' E 010°36'0 0.0
2019-Aug-22 14:00N 59°40' E 010°36'0 0.0
2019-Aug-22 13:28N 59°40' E 010°36'0 0.0
2019-Aug-22 13:00N 59°40' E 010°36'0 0.0
2019-Aug-22 12:30N 59°40' E 010°36'0 0.0
2019-Aug-22 12:00N 59°40' E 010°36'1 1.9
2019-Aug-22 11:30N 59°40' E 010°37'4 7.4
2019-Aug-22 11:00N 59°36' E 010°38'4 7.8
2019-Aug-22 10:30N 59°32' E 010°37'4 7.6
2019-Aug-22 10:00N 59°29' E 010°35'4 7.0
2019-Aug-22 09:30N 59°25' E 010°35'3 6.7
2019-Aug-22 09:00N 59°22' E 010°37'4 7.4
2019-Aug-22 08:30N 59°19' E 010°40'4 7.3
2019-Aug-22 08:00N 59°15' E 010°43'4 7.3
2019-Aug-22 07:30N 59°12' E 010°44'4 7.2
2019-Aug-22 07:00N 59°08' E 010°47'3 6.9
2019-Aug-22 06:30N 59°05' E 010°49'4 7.1
2019-Aug-22 06:00N 59°02' E 010°52'4 7.3
2019-Aug-22 05:30N 58°60' E 010°58'4 7.1
2019-Aug-22 05:00N 58°58' E 011°03'3 6.5
2019-Aug-22 04:30N 58°56' E 011°09'1 1.8
2019-Aug-22 04:00N 58°56' E 011°10'0 0.0
2019-Aug-22 03:28N 58°56' E 011°10'0 0.0
2019-Aug-22 02:58N 58°56' E 011°10'0 0.0
2019-Aug-22 02:28N 58°56' E 011°10'0 0.0
2019-Aug-22 01:58N 58°56' E 011°10'0 0.0
2019-Aug-22 01:28N 58°56' E 011°10'0 0.0
2019-Aug-22 00:58N 58°56' E 011°10'0 0.0
2019-Aug-22 00:28N 58°56' E 011°10'0 0.0
2019-Aug-21 23:58N 58°56' E 011°10'0 0.0
2019-Aug-21 23:28N 58°56' E 011°10'0 0.0
2019-Aug-21 22:59N 58°56' E 011°10'0 0.0
2019-Aug-21 22:28N 58°56' E 011°10'0 0.0
2019-Aug-21 21:58N 58°56' E 011°10'0 0.0
2019-Aug-21 21:28N 58°56' E 011°10'0 0.0
2019-Aug-21 20:56N 58°56' E 011°10'0 0.0
2019-Aug-21 20:29N 58°56' E 011°10'0 0.0
2019-Aug-21 19:59N 58°56' E 011°10'0 0.0
2019-Aug-21 19:28N 58°56' E 011°10'0 0.0
2019-Aug-21 18:58N 58°56' E 011°10'0 0.0
2019-Aug-21 18:29N 58°56' E 011°10'0 0.0
2019-Aug-21 17:55N 58°56' E 011°10'0 0.0
2019-Aug-21 17:29N 58°56' E 011°10'0 0.0
2019-Aug-21 16:58N 58°56' E 011°10'0 0.0
2019-Aug-21 16:29N 58°56' E 011°10'0 0.0
2019-Aug-21 15:59N 58°56' E 011°10'0 0.0
2019-Aug-21 15:29N 58°56' E 011°10'0 0.0
2019-Aug-21 14:59N 58°56' E 011°10'0 0.0
2019-Aug-21 14:29N 58°56' E 011°10'0 0.0
2019-Aug-21 13:58N 58°56' E 011°10'0 0.0
2019-Aug-21 13:30N 58°56' E 011°10'2 3.5
2019-Aug-21 13:00N 58°56' E 011°07'3 6.6
2019-Aug-21 12:30N 58°58' E 011°02'3 6.7
2019-Aug-21 12:00N 59°00' E 010°56'3 6.4
2019-Aug-21 11:30N 59°01' E 010°51'3 6.6
2019-Aug-21 11:00N 59°03' E 010°45'3 6.6
2019-Aug-21 10:30N 59°05' E 010°40'3 6.6
2019-Aug-21 10:00N 59°07' E 010°35'3 7.0
2019-Aug-21 09:30N 59°09' E 010°29'3 6.2
2019-Aug-21 09:00N 59°10' E 010°24'0 0.4
2019-Aug-21 08:30N 59°10' E 010°23'0 0.0
2019-Aug-21 08:00N 59°10' E 010°23'0 0.0
2019-Aug-21 07:29N 59°10' E 010°23'0 0.0
2019-Aug-21 07:00N 59°10' E 010°23'0 0.0
2019-Aug-21 06:29N 59°10' E 010°23'0 0.0
2019-Aug-21 06:00N 59°10' E 010°23'0 0.0
2019-Aug-21 05:30N 59°10' E 010°23'0 0.0
2019-Aug-21 05:00N 59°10' E 010°23'0 0.0
2019-Aug-21 04:29N 59°10' E 010°23'0 0.0
2019-Aug-21 04:00N 59°10' E 010°23'0 0.0
2019-Aug-21 03:29N 59°10' E 010°23'0 0.0
2019-Aug-21 02:59N 59°10' E 010°23'0 0.0
2019-Aug-21 02:30N 59°10' E 010°23'0 0.0
2019-Aug-21 02:00N 59°10' E 010°23'0 0.0
2019-Aug-21 01:29N 59°10' E 010°23'0 0.0
2019-Aug-21 01:00N 59°10' E 010°23'0 0.0
2019-Aug-21 00:30N 59°10' E 010°23'0 0.0
2019-Aug-20 23:59N 59°10' E 010°23'0 0.0
2019-Aug-20 23:29N 59°10' E 010°23'0 0.0
2019-Aug-20 22:59N 59°10' E 010°23'0 0.0
2019-Aug-20 22:30N 59°10' E 010°23'0 0.0
2019-Aug-20 21:59N 59°10' E 010°23'0 0.0
2019-Aug-20 21:30N 59°10' E 010°23'0 0.0
2019-Aug-20 21:00N 59°10' E 010°23'0 0.0
2019-Aug-20 20:29N 59°10' E 010°23'0 0.0
2019-Aug-20 20:00N 59°10' E 010°23'0 0.0
2019-Aug-20 19:30N 59°10' E 010°23'0 0.0
2019-Aug-20 18:59N 59°10' E 010°23'0 0.0
2019-Aug-20 18:29N 59°10' E 010°23'0 0.0
2019-Aug-20 18:00N 59°10' E 010°23'0 0.0
2019-Aug-20 17:29N 59°10' E 010°23'0 0.0
2019-Aug-20 17:00N 59°10' E 010°23'0 0.0
2019-Aug-20 16:29N 59°10' E 010°23'0 0.0
2019-Aug-20 15:59N 59°10' E 010°23'0 0.0
2019-Aug-20 15:30N 59°10' E 010°23'2 3.6
2019-Aug-20 15:00N 59°10' E 010°27'3 5.4
2019-Aug-20 14:30N 59°12' E 010°29'3 6.0
2019-Aug-20 14:00N 59°15' E 010°31'3 5.9
2019-Aug-20 13:30N 59°18' E 010°32'3 5.4
2019-Aug-20 13:00N 59°20' E 010°33'3 5.4
2019-Aug-20 12:30N 59°23' E 010°33'3 5.8
2019-Aug-20 12:00N 59°26' E 010°31'1 2.1
2019-Aug-20 11:30N 59°26' E 010°29'0 0.3
2019-Aug-20 11:00N 59°26' E 010°29'0 0.0
2019-Aug-20 10:30N 59°26' E 010°29'0 0.0
2019-Aug-20 10:00N 59°26' E 010°29'0 0.0
2019-Aug-20 09:28N 59°26' E 010°29'0 0.0
2019-Aug-20 09:00N 59°26' E 010°29'0 0.0
2019-Aug-20 08:27N 59°26' E 010°29'0 0.0
2019-Aug-20 08:00N 59°26' E 010°29'0 0.0
2019-Aug-20 07:30N 59°26' E 010°29'0 0.0
2019-Aug-20 06:58N 59°26' E 010°29'0 0.0
2019-Aug-20 06:30N 59°26' E 010°29'0 0.0
2019-Aug-20 05:57N 59°26' E 010°29'0 0.0
2019-Aug-20 05:28N 59°26' E 010°29'0 0.0
2019-Aug-20 05:01N 59°26' E 010°29'0 0.0
2019-Aug-20 04:28N 59°26' E 010°29'0 0.0
2019-Aug-20 04:00N 59°26' E 010°29'0 0.0
2019-Aug-20 03:28N 59°26' E 010°29'0 0.0
2019-Aug-20 02:57N 59°26' E 010°29'0 0.0
2019-Aug-20 02:27N 59°26' E 010°29'0 0.0
2019-Aug-20 01:57N 59°26' E 010°29'0 0.0
2019-Aug-20 01:30N 59°26' E 010°29'0 0.0
2019-Aug-20 00:57N 59°26' E 010°29'0 0.0
2019-Aug-20 00:31N 59°26' E 010°29'0 0.0
2019-Aug-20 00:00N 59°26' E 010°29'0 0.0
2019-Aug-19 23:30N 59°26' E 010°29'0 0.0
2019-Aug-19 22:58N 59°26' E 010°29'0 0.0
2019-Aug-19 22:27N 59°26' E 010°29'0 0.0
2019-Aug-19 21:57N 59°26' E 010°29'0 0.0
2019-Aug-19 21:30N 59°26' E 010°29'0 0.0
2019-Aug-19 21:00N 59°26' E 010°29'0 0.0
2019-Aug-19 20:27N 59°26' E 010°29'0 0.0
2019-Aug-19 20:00N 59°26' E 010°29'0 0.0
2019-Aug-19 19:31N 59°26' E 010°29'0 0.0
2019-Aug-19 18:57N 59°26' E 010°29'0 0.0
2019-Aug-19 18:31N 59°26' E 010°29'1 1.2
2019-Aug-19 18:00N 59°26' E 010°29'3 6.3
2019-Aug-19 17:30N 59°29' E 010°32'3 5.9
2019-Aug-19 17:00N 59°31' E 010°35'3 5.9
2019-Aug-19 16:30N 59°34' E 010°37'3 5.7
2019-Aug-19 16:00N 59°37' E 010°37'3 5.9
2019-Aug-19 15:30N 59°40' E 010°36'3 6.3
2019-Aug-19 15:00N 59°43' E 010°32'3 6.6
2019-Aug-19 14:30N 59°46' E 010°33'3 6.3
2019-Aug-19 14:00N 59°49' E 010°34'3 6.2
2019-Aug-19 13:30N 59°52' E 010°37'3 6.0
2019-Aug-19 13:00N 59°54' E 010°41'1 1.5
2019-Aug-19 12:30N 59°54' E 010°42'0 0.0
2019-Aug-19 11:59N 59°54' E 010°42'0 0.0
2019-Aug-19 11:29N 59°54' E 010°42'0 0.0
2019-Aug-19 10:58N 59°54' E 010°42'0 0.0
2019-Aug-19 10:28N 59°54' E 010°42'0 0.0
2019-Aug-19 09:58N 59°54' E 010°42'0 0.0
2019-Aug-19 09:29N 59°54' E 010°42'0 0.0
2019-Aug-19 08:58N 59°54' E 010°42'0 0.0
2019-Aug-19 08:28N 59°54' E 010°42'0 0.0
2019-Aug-19 07:58N 59°54' E 010°42'0 0.0
2019-Aug-19 07:28N 59°54' E 010°42'0 0.0
2019-Aug-19 06:58N 59°54' E 010°42'0 0.0
2019-Aug-19 06:28N 59°54' E 010°42'0 0.0
2019-Aug-19 05:58N 59°54' E 010°42'0 0.0
2019-Aug-19 05:28N 59°54' E 010°42'0 0.0
2019-Aug-19 04:59N 59°54' E 010°42'0 0.0
2019-Aug-19 04:29N 59°54' E 010°42'0 0.0
2019-Aug-19 03:58N 59°54' E 010°42'0 0.0
2019-Aug-19 03:29N 59°54' E 010°42'0 0.0
2019-Aug-19 02:59N 59°54' E 010°42'0 0.0
2019-Aug-19 02:29N 59°54' E 010°42'0 0.0
2019-Aug-19 01:58N 59°54' E 010°42'0 0.0
2019-Aug-19 01:28N 59°54' E 010°42'0 0.0
2019-Aug-19 00:59N 59°54' E 010°42'0 0.0
2019-Aug-19 00:28N 59°54' E 010°42'0 0.0
2019-Aug-18 23:59N 59°54' E 010°42'0 0.0
2019-Aug-18 23:28N 59°54' E 010°42'0 0.0
2019-Aug-18 22:58N 59°54' E 010°42'0 0.0
2019-Aug-18 22:29N 59°54' E 010°42'0 0.0
2019-Aug-18 21:59N 59°54' E 010°42'0 0.0
2019-Aug-18 21:29N 59°54' E 010°42'0 0.0
2019-Aug-18 20:59N 59°54' E 010°42'0 0.0
2019-Aug-18 20:29N 59°54' E 010°42'0 0.0
2019-Aug-18 19:58N 59°54' E 010°42'0 0.0
2019-Aug-18 19:28N 59°54' E 010°42'0 0.0
2019-Aug-18 18:59N 59°54' E 010°42'0 0.0
2019-Aug-18 18:28N 59°54' E 010°42'0 0.0
2019-Aug-18 17:58N 59°54' E 010°42'0 0.0
2019-Aug-18 17:28N 59°54' E 010°42'0 0.0
2019-Aug-18 16:58N 59°54' E 010°42'0 0.0
2019-Aug-18 16:29N 59°54' E 010°42'0 0.0
2019-Aug-18 15:59N 59°54' E 010°42'0 0.0
2019-Aug-18 15:29N 59°54' E 010°42'0 0.0
2019-Aug-18 14:58N 59°54' E 010°42'0 0.0
2019-Aug-18 14:29N 59°54' E 010°42'0 0.0
2019-Aug-18 13:59N 59°54' E 010°42'0 0.0
2019-Aug-18 13:28N 59°54' E 010°42'0 0.0
2019-Aug-18 12:58N 59°54' E 010°42'0 0.0
2019-Aug-18 12:29N 59°54' E 010°42'0 0.0
2019-Aug-18 11:59N 59°54' E 010°42'0 0.0
2019-Aug-18 11:29N 59°54' E 010°42'0 0.0
2019-Aug-18 10:58N 59°54' E 010°42'0 0.0
2019-Aug-18 10:28N 59°54' E 010°42'0 0.0
2019-Aug-18 09:58N 59°54' E 010°42'0 0.0
2019-Aug-18 09:29N 59°54' E 010°42'0 0.0
2019-Aug-18 08:58N 59°54' E 010°42'0 0.0
2019-Aug-18 08:28N 59°54' E 010°42'0 0.0
2019-Aug-18 07:59N 59°54' E 010°42'0 0.0
2019-Aug-18 06:58N 59°54' E 010°42'0 0.0
2019-Aug-18 06:28N 59°54' E 010°42'0 0.0
2019-Aug-18 05:58N 59°54' E 010°42'0 0.0
2019-Aug-18 05:28N 59°54' E 010°42'0 0.0
2019-Aug-18 04:58N 59°54' E 010°42'0 0.0
2019-Aug-18 04:29N 59°54' E 010°42'0 0.0
2019-Aug-18 03:58N 59°54' E 010°42'0 0.0
2019-Aug-18 03:29N 59°54' E 010°42'0 0.0
2019-Aug-18 02:58N 59°54' E 010°42'0 0.0
2019-Aug-18 02:28N 59°54' E 010°42'0 0.0
2019-Aug-18 01:58N 59°54' E 010°42'0 0.0
2019-Aug-18 01:28N 59°54' E 010°42'0 0.0
2019-Aug-18 00:58N 59°54' E 010°42'0 0.0
2019-Aug-18 00:28N 59°54' E 010°42'0 0.0
2019-Aug-17 23:58N 59°54' E 010°42'0 0.0
2019-Aug-17 23:28N 59°54' E 010°42'0 0.0
2019-Aug-17 22:59N 59°54' E 010°42'0 0.0
2019-Aug-17 22:29N 59°54' E 010°42'0 0.0
2019-Aug-17 21:58N 59°54' E 010°42'0 0.0
2019-Aug-17 21:28N 59°54' E 010°42'0 0.0
2019-Aug-17 20:58N 59°54' E 010°42'0 0.0
2019-Aug-17 20:28N 59°54' E 010°42'0 0.0
2019-Aug-17 19:58N 59°54' E 010°42'0 0.0
2019-Aug-17 19:29N 59°54' E 010°42'0 0.0
2019-Aug-17 18:58N 59°54' E 010°42'0 0.0
2019-Aug-17 18:28N 59°54' E 010°42'0 0.0
2019-Aug-17 17:28N 59°54' E 010°42'0 0.0
2019-Aug-17 16:58N 59°54' E 010°42'0 0.0
2019-Aug-17 16:29N 59°54' E 010°42'0 0.0
2019-Aug-17 15:59N 59°54' E 010°42'0 0.0
2019-Aug-17 15:29N 59°54' E 010°42'0 0.0
2019-Aug-17 14:59N 59°54' E 010°42'0 0.0
2019-Aug-17 14:29N 59°54' E 010°42'0 0.0
2019-Aug-17 13:58N 59°54' E 010°42'0 0.0
2019-Aug-17 13:28N 59°54' E 010°42'0 0.0
2019-Aug-17 12:59N 59°54' E 010°42'0 0.0
2019-Aug-17 12:28N 59°54' E 010°42'0 0.0
2019-Aug-17 11:59N 59°54' E 010°42'0 0.0
2019-Aug-17 11:29N 59°54' E 010°42'0 0.0
2019-Aug-17 10:58N 59°54' E 010°42'0 0.0
2019-Aug-17 10:29N 59°54' E 010°42'0 0.0
2019-Aug-17 09:58N 59°54' E 010°42'0 0.0
2019-Aug-17 09:28N 59°54' E 010°42'0 0.0
2019-Aug-17 08:58N 59°54' E 010°42'0 0.0
2019-Aug-17 08:29N 59°54' E 010°42'0 0.0
2019-Aug-17 07:59N 59°54' E 010°42'0 0.0
2019-Aug-17 07:28N 59°54' E 010°42'0 0.0
2019-Aug-17 06:58N 59°54' E 010°42'0 0.0
2019-Aug-17 06:28N 59°54' E 010°42'0 0.0
2019-Aug-17 05:58N 59°54' E 010°42'0 0.0
2019-Aug-17 05:28N 59°54' E 010°42'0 0.0
2019-Aug-17 04:59N 59°54' E 010°42'0 0.0
2019-Aug-17 04:22N 59°54' E 010°42'0 0.0
2019-Aug-17 03:58N 59°54' E 010°42'0 0.0
2019-Aug-17 03:28N 59°54' E 010°42'0 0.0
2019-Aug-17 02:58N 59°54' E 010°42'0 0.0
2019-Aug-17 02:29N 59°54' E 010°42'0 0.0
2019-Aug-17 01:58N 59°54' E 010°42'0 0.0
2019-Aug-17 01:28N 59°54' E 010°42'0 0.0
2019-Aug-17 00:58N 59°54' E 010°42'0 0.0
2019-Aug-17 00:28N 59°54' E 010°42'0 0.0
2019-Aug-16 23:58N 59°54' E 010°42'0 0.0
2019-Aug-16 23:28N 59°54' E 010°42'0 0.0
2019-Aug-16 22:59N 59°54' E 010°42'0 0.0
2019-Aug-16 22:29N 59°54' E 010°42'0 0.0
2019-Aug-16 21:59N 59°54' E 010°42'0 0.0
2019-Aug-16 21:28N 59°54' E 010°42'0 0.0
2019-Aug-16 20:58N 59°54' E 010°42'0 0.0
2019-Aug-16 20:28N 59°54' E 010°42'0 0.0
2019-Aug-16 19:58N 59°54' E 010°42'0 0.0
2019-Aug-16 19:29N 59°54' E 010°42'0 0.0
2019-Aug-16 18:58N 59°54' E 010°42'0 0.0
2019-Aug-16 18:29N 59°54' E 010°42'0 0.0
2019-Aug-16 17:59N 59°54' E 010°42'0 0.0
2019-Aug-16 17:29N 59°54' E 010°42'0 0.0
2019-Aug-16 16:58N 59°54' E 010°42'0 0.0
2019-Aug-16 16:28N 59°54' E 010°42'0 0.0
2019-Aug-16 15:58N 59°54' E 010°42'0 0.0
2019-Aug-16 15:29N 59°54' E 010°42'0 0.0
2019-Aug-16 14:59N 59°54' E 010°42'0 0.0
2019-Aug-16 14:28N 59°54' E 010°42'0 0.0
2019-Aug-16 13:58N 59°54' E 010°42'0 0.0
2019-Aug-16 13:28N 59°54' E 010°42'0 0.0
2019-Aug-16 12:59N 59°54' E 010°42'0 0.0
2019-Aug-16 12:29N 59°54' E 010°42'0 0.0
2019-Aug-16 11:58N 59°54' E 010°42'0 0.0
2019-Aug-16 11:29N 59°54' E 010°42'0 0.0
2019-Aug-16 10:53N 59°54' E 010°42'0 0.0
2019-Aug-16 10:28N 59°54' E 010°42'0 0.0
2019-Aug-16 09:58N 59°54' E 010°42'0 0.0
2019-Aug-16 09:29N 59°54' E 010°42'0 0.0
2019-Aug-16 08:58N 59°54' E 010°42'0 0.0
2019-Aug-16 08:28N 59°54' E 010°42'0 0.0
2019-Aug-16 07:58N 59°54' E 010°42'0 0.0
2019-Aug-16 07:28N 59°54' E 010°42'0 0.0
2019-Aug-16 06:58N 59°54' E 010°42'0 0.0
2019-Aug-16 06:28N 59°54' E 010°42'0 0.0
2019-Aug-16 05:58N 59°54' E 010°42'0 0.0
2019-Aug-16 05:28N 59°54' E 010°42'0 0.0
2019-Aug-16 04:59N 59°54' E 010°42'0 0.0
2019-Aug-16 04:28N 59°54' E 010°42'0 0.0
2019-Aug-16 03:58N 59°54' E 010°42'0 0.0
2019-Aug-16 03:28N 59°54' E 010°42'0 0.0
2019-Aug-16 02:58N 59°54' E 010°42'0 0.0
2019-Aug-16 02:29N 59°54' E 010°42'0 0.0
2019-Aug-16 01:58N 59°54' E 010°42'0 0.0
2019-Aug-16 01:29N 59°54' E 010°42'0 0.0
2019-Aug-16 00:59N 59°54' E 010°42'0 0.0
2019-Aug-16 00:29N 59°54' E 010°42'0 0.0
2019-Aug-15 23:58N 59°54' E 010°42'0 0.0
2019-Aug-15 23:28N 59°54' E 010°42'0 0.0
2019-Aug-15 22:59N 59°54' E 010°42'0 0.0
2019-Aug-15 22:29N 59°54' E 010°42'0 0.0
2019-Aug-15 21:58N 59°54' E 010°42'0 0.0
2019-Aug-15 21:29N 59°54' E 010°42'0 0.0
2019-Aug-15 20:59N 59°54' E 010°42'0 0.0
2019-Aug-15 20:28N 59°54' E 010°42'0 0.0
2019-Aug-15 19:58N 59°54' E 010°42'0 0.0
2019-Aug-15 19:28N 59°54' E 010°42'0 0.0
2019-Aug-15 18:59N 59°54' E 010°42'0 0.0
2019-Aug-15 18:28N 59°54' E 010°42'0 0.0
2019-Aug-15 17:56N 59°54' E 010°42'0 0.0
2019-Aug-15 17:29N 59°54' E 010°42'0 0.1
2019-Aug-15 17:00N 59°54' E 010°42'1 2.8
2019-Aug-15 16:30N 59°54' E 010°45'2 4.1
2019-Aug-15 16:00N 59°53' E 010°42'3 6.7
2019-Aug-15 15:29N 59°50' E 010°37'3 7.2
2019-Aug-15 15:00N 59°47' E 010°35'4 7.3
2019-Aug-15 14:30N 59°43' E 010°35'4 7.4
2019-Aug-15 14:00N 59°40' E 010°37'4 7.7
2019-Aug-15 13:30N 59°36' E 010°38'4 7.4
2019-Aug-15 13:00N 59°32' E 010°37'4 7.4
2019-Aug-15 12:31N 59°29' E 010°35'4 7.1
2019-Aug-15 12:01N 59°25' E 010°34'4 7.2
2019-Aug-15 11:31N 59°22' E 010°38'4 7.0
2019-Aug-15 11:00N 59°19' E 010°40'4 7.2
2019-Aug-15 10:31N 59°15' E 010°43'3 5.7
2019-Aug-15 10:00N 59°13' E 010°45'1 2.5
2019-Aug-15 09:30N 59°14' E 010°46'1 1.3
2019-Aug-15 09:00N 59°13' E 010°47'0 0.0
2019-Aug-15 08:28N 59°13' E 010°47'0 0.0
2019-Aug-15 07:59N 59°13' E 010°47'0 0.0
2019-Aug-15 07:29N 59°13' E 010°47'0 0.0
2019-Aug-15 06:58N 59°13' E 010°47'0 0.0
2019-Aug-15 06:28N 59°13' E 010°47'0 0.0
2019-Aug-15 05:58N 59°13' E 010°47'0 0.0
2019-Aug-15 05:29N 59°13' E 010°47'0 0.0
2019-Aug-15 04:59N 59°13' E 010°47'0 0.0
2019-Aug-15 04:28N 59°13' E 010°47'0 0.0
2019-Aug-15 03:59N 59°13' E 010°47'0 0.0
2019-Aug-15 03:29N 59°13' E 010°47'0 0.0
2019-Aug-15 02:58N 59°13' E 010°47'0 0.0
2019-Aug-15 02:29N 59°13' E 010°47'0 0.0
2019-Aug-15 01:58N 59°13' E 010°47'0 0.0
2019-Aug-15 01:28N 59°13' E 010°47'0 0.0
2019-Aug-15 00:58N 59°13' E 010°47'0 0.0
2019-Aug-15 00:28N 59°13' E 010°47'0 0.0
2019-Aug-14 23:59N 59°13' E 010°47'0 0.0
2019-Aug-14 23:28N 59°13' E 010°47'0 0.0
2019-Aug-14 22:59N 59°13' E 010°47'0 0.0
2019-Aug-14 22:28N 59°13' E 010°47'0 0.0
2019-Aug-14 21:59N 59°13' E 010°47'0 0.0
2019-Aug-14 21:28N 59°13' E 010°47'0 0.0
2019-Aug-14 20:58N 59°13' E 010°47'0 0.0
2019-Aug-14 20:28N 59°13' E 010°47'0 0.0
2019-Aug-14 19:58N 59°13' E 010°47'0 0.0
2019-Aug-14 19:28N 59°13' E 010°47'0 0.0
2019-Aug-14 18:59N 59°13' E 010°47'0 0.0
2019-Aug-14 18:30N 59°13' E 010°47'0 0.0
2019-Aug-14 18:00N 59°13' E 010°47'0 0.0
2019-Aug-14 17:29N 59°13' E 010°47'0 0.0
2019-Aug-14 16:59N 59°13' E 010°47'0 0.0
2019-Aug-14 16:30N 59°13' E 010°47'0 0.0
2019-Aug-14 15:59N 59°13' E 010°47'0 0.0
2019-Aug-14 15:29N 59°13' E 010°47'0 0.0
2019-Aug-14 15:00N 59°13' E 010°47'1 2.2
2019-Aug-14 14:30N 59°12' E 010°48'2 5.0
2019-Aug-14 14:00N 59°10' E 010°46'2 3.9
2019-Aug-14 13:30N 59°09' E 010°43'2 4.0
2019-Aug-14 13:00N 59°09' E 010°39'2 3.1
2019-Aug-14 12:30N 59°08' E 010°36'1 2.3
2019-Aug-14 12:00N 59°08' E 010°34'1 1.9
2019-Aug-14 11:30N 59°08' E 010°32'2 3.6
2019-Aug-14 11:00N 59°09' E 010°28'2 4.5
2019-Aug-14 10:30N 59°10' E 010°25'1 1.4
2019-Aug-14 09:58N 59°10' E 010°23'0 0.0
2019-Aug-14 09:28N 59°10' E 010°23'0 0.0
2019-Aug-14 08:59N 59°10' E 010°23'0 0.0
2019-Aug-14 08:28N 59°10' E 010°23'0 0.0
2019-Aug-14 07:58N 59°10' E 010°23'0 0.0
2019-Aug-14 07:29N 59°10' E 010°23'0 0.0
2019-Aug-14 06:58N 59°10' E 010°23'  
Track history (hours):
 
Tides and Currents Weather Stations Pressure Air Temp Water Temp Dewpoint Dewpoint Depression Visibility Wind Speed Wind Dir Waves Ship Positions

Svanen (Norway)

Ship's website: http://www.svanen.no/english/english.php1

Last reported at 2019-Aug-24 06:29 UTC. Time now 2019-Aug-24 06:41 UTC.
Position N 59°54' E 010°42'.

Length 27 m; draft 2.8 m.

Type: Sailing vessel. MMSI: 259173000.

Date/timePositionNaut miles runAvg speedWind from/ knotsBaromVisibWave heightAir tempDewpointWater temp
2019-Aug-24 06:29N 59°54' E 010°42'0 0.0
2019-Aug-24 05:59N 59°54' E 010°42'0 0.0
2019-Aug-24 05:29N 59°54' E 010°42'0 0.0
2019-Aug-24 04:59N 59°54' E 010°42'0 0.0
2019-Aug-24 04:29N 59°54' E 010°42'0 0.0
2019-Aug-24 03:59N 59°54' E 010°42'0 0.0
2019-Aug-24 03:29N 59°54' E 010°42'0 0.0
2019-Aug-24 02:59N 59°54' E 010°42'0 0.0
2019-Aug-24 02:28N 59°54' E 010°42'0 0.0
2019-Aug-24 01:58N 59°54' E 010°42'0 0.0
2019-Aug-24 01:29N 59°54' E 010°42'0 0.0
2019-Aug-24 00:59N 59°54' E 010°42'0 0.0
2019-Aug-24 00:28N 59°54' E 010°42'0 0.0
2019-Aug-23 23:59N 59°54' E 010°42'0 0.0
2019-Aug-23 23:28N 59°54' E 010°42'0 0.0
2019-Aug-23 22:59N 59°54' E 010°42'0 0.0
2019-Aug-23 22:28N 59°54' E 010°42'0 0.0
2019-Aug-23 21:58N 59°54' E 010°42'0 0.0
2019-Aug-23 21:28N 59°54' E 010°42'0 0.0
2019-Aug-23 20:58N 59°54' E 010°42'0 0.0
2019-Aug-23 20:28N 59°54' E 010°42'0 0.0
2019-Aug-23 19:58N 59°54' E 010°42'0 0.0
2019-Aug-23 19:29N 59°54' E 010°42'0 0.0
2019-Aug-23 18:59N 59°54' E 010°42'0 0.0
2019-Aug-23 18:28N 59°54' E 010°42'0 0.0
2019-Aug-23 17:58N 59°54' E 010°42'0 0.0
2019-Aug-23 17:29N 59°54' E 010°42'0 0.0
2019-Aug-23 16:58N 59°54' E 010°42'0 0.0
2019-Aug-23 16:28N 59°54' E 010°42'0 0.0
2019-Aug-23 15:59N 59°54' E 010°42'0 0.0
2019-Aug-23 15:28N 59°54' E 010°42'0 0.0
2019-Aug-23 14:59N 59°54' E 010°42'0 0.0
2019-Aug-23 14:28N 59°54' E 010°42'0 0.0
2019-Aug-23 13:59N 59°54' E 010°42'0 0.0
2019-Aug-23 13:29N 59°54' E 010°42'0 0.0
2019-Aug-23 12:59N 59°54' E 010°42'0 0.2
2019-Aug-23 12:30N 59°54' E 010°42'3 5.3
2019-Aug-23 12:00N 59°52' E 010°39'4 7.0
2019-Aug-23 11:30N 59°49' E 010°36'4 7.3
2019-Aug-23 11:00N 59°45' E 010°35'4 7.1
2019-Aug-23 10:30N 59°42' E 010°36'2 3.0
2019-Aug-23 10:00N 59°40' E 010°36'0 0.6
2019-Aug-23 09:30N 59°40' E 010°36'1 1.8
2019-Aug-23 09:00N 59°41' E 010°34'1 2.2
2019-Aug-23 08:30N 59°41' E 010°32'2 3.8
2019-Aug-23 08:00N 59°40' E 010°35'0 0.9
2019-Aug-23 07:28N 59°40' E 010°36'0 0.0
2019-Aug-23 07:00N 59°40' E 010°36'0 0.0
2019-Aug-23 06:30N 59°40' E 010°36'0 0.0
2019-Aug-23 05:57N 59°40' E 010°36'0 0.0
2019-Aug-23 05:30N 59°40' E 010°36'0 0.0
2019-Aug-23 05:00N 59°40' E 010°36'0 0.0
2019-Aug-23 04:27N 59°40' E 010°36'0 0.0
2019-Aug-23 03:57N 59°40' E 010°36'0 0.0
2019-Aug-23 03:30N 59°40' E 010°36'0 0.0
2019-Aug-23 02:57N 59°40' E 010°36'0 0.0
2019-Aug-23 02:28N 59°40' E 010°36'0 0.0
2019-Aug-23 01:57N 59°40' E 010°36'0 0.0
2019-Aug-23 01:27N 59°40' E 010°36'0 0.0
2019-Aug-23 01:01N 59°40' E 010°36'0 0.0
2019-Aug-23 00:30N 59°40' E 010°36'0 0.0
2019-Aug-23 00:00N 59°40' E 010°36'0 0.0
2019-Aug-22 23:31N 59°40' E 010°36'0 0.0
2019-Aug-22 22:57N 59°40' E 010°36'0 0.0
2019-Aug-22 22:27N 59°40' E 010°36'0 0.0
2019-Aug-22 22:00N 59°40' E 010°36'0 0.0
2019-Aug-22 21:28N 59°40' E 010°36'0 0.0
2019-Aug-22 20:57N 59°40' E 010°36'0 0.0
2019-Aug-22 20:30N 59°40' E 010°36'0 0.0
2019-Aug-22 19:58N 59°40' E 010°36'0 0.0
2019-Aug-22 19:28N 59°40' E 010°36'0 0.0
2019-Aug-22 18:57N 59°40' E 010°36'0 0.0
2019-Aug-22 18:28N 59°40' E 010°36'0 0.0
2019-Aug-22 18:00N 59°40' E 010°36'0 0.0
2019-Aug-22 17:30N 59°40' E 010°36'0 0.0
2019-Aug-22 17:00N 59°40' E 010°36'0 0.0
2019-Aug-22 16:27N 59°40' E 010°36'0 0.0
2019-Aug-22 16:00N 59°40' E 010°36'0 0.0
2019-Aug-22 15:27N 59°40' E 010°36'0 0.0
2019-Aug-22 15:00N 59°40' E 010°36'0 0.0
2019-Aug-22 14:30N 59°40' E 010°36'0 0.0
2019-Aug-22 14:00N 59°40' E 010°36'0 0.0
2019-Aug-22 13:28N 59°40' E 010°36'0 0.0
2019-Aug-22 13:00N 59°40' E 010°36'0 0.0
2019-Aug-22 12:30N 59°40' E 010°36'0 0.0
2019-Aug-22 12:00N 59°40' E 010°36'1 1.9
2019-Aug-22 11:30N 59°40' E 010°37'4 7.4
2019-Aug-22 11:00N 59°36' E 010°38'4 7.8
2019-Aug-22 10:30N 59°32' E 010°37'4 7.6
2019-Aug-22 10:00N 59°29' E 010°35'4 7.0
2019-Aug-22 09:30N 59°25' E 010°35'3 6.7
2019-Aug-22 09:00N 59°22' E 010°37'4 7.4
2019-Aug-22 08:30N 59°19' E 010°40'4 7.3
2019-Aug-22 08:00N 59°15' E 010°43'4 7.3
2019-Aug-22 07:30N 59°12' E 010°44'4 7.2
2019-Aug-22 07:00N 59°08' E 010°47'3 6.9
2019-Aug-22 06:30N 59°05' E 010°49'4 7.1
2019-Aug-22 06:00N 59°02' E 010°52'4 7.3
2019-Aug-22 05:30N 58°60' E 010°58'4 7.1
2019-Aug-22 05:00N 58°58' E 011°03'3 6.5
2019-Aug-22 04:30N 58°56' E 011°09'1 1.8
2019-Aug-22 04:00N 58°56' E 011°10'0 0.0
2019-Aug-22 03:28N 58°56' E 011°10'0 0.0
2019-Aug-22 02:58N 58°56' E 011°10'0 0.0
2019-Aug-22 02:28N 58°56' E 011°10'0 0.0
2019-Aug-22 01:58N 58°56' E 011°10'0 0.0
2019-Aug-22 01:28N 58°56' E 011°10'0 0.0
2019-Aug-22 00:58N 58°56' E 011°10'0 0.0
2019-Aug-22 00:28N 58°56' E 011°10'0 0.0
2019-Aug-21 23:58N 58°56' E 011°10'0 0.0
2019-Aug-21 23:28N 58°56' E 011°10'0 0.0
2019-Aug-21 22:59N 58°56' E 011°10'0 0.0
2019-Aug-21 22:28N 58°56' E 011°10'0 0.0
2019-Aug-21 21:58N 58°56' E 011°10'0 0.0
2019-Aug-21 21:28N 58°56' E 011°10'0 0.0
2019-Aug-21 20:56N 58°56' E 011°10'0 0.0
2019-Aug-21 20:29N 58°56' E 011°10'0 0.0
2019-Aug-21 19:59N 58°56' E 011°10'0 0.0
2019-Aug-21 19:28N 58°56' E 011°10'0 0.0
2019-Aug-21 18:58N 58°56' E 011°10'0 0.0
2019-Aug-21 18:29N 58°56' E 011°10'0 0.0
2019-Aug-21 17:55N 58°56' E 011°10'0 0.0
2019-Aug-21 17:29N 58°56' E 011°10'0 0.0
2019-Aug-21 16:58N 58°56' E 011°10'0 0.0
2019-Aug-21 16:29N 58°56' E 011°10'0 0.0
2019-Aug-21 15:59N 58°56' E 011°10'0 0.0
2019-Aug-21 15:29N 58°56' E 011°10'0 0.0
2019-Aug-21 14:59N 58°56' E 011°10'0 0.0
2019-Aug-21 14:29N 58°56' E 011°10'0 0.0
2019-Aug-21 13:58N 58°56' E 011°10'0 0.0
2019-Aug-21 13:30N 58°56' E 011°10'2 3.5
2019-Aug-21 13:00N 58°56' E 011°07'3 6.6
2019-Aug-21 12:30N 58°58' E 011°02'3 6.7
2019-Aug-21 12:00N 59°00' E 010°56'3 6.4
2019-Aug-21 11:30N 59°01' E 010°51'3 6.6
2019-Aug-21 11:00N 59°03' E 010°45'3 6.6
2019-Aug-21 10:30N 59°05' E 010°40'3 6.6
2019-Aug-21 10:00N 59°07' E 010°35'3 7.0
2019-Aug-21 09:30N 59°09' E 010°29'3 6.2
2019-Aug-21 09:00N 59°10' E 010°24'0 0.4
2019-Aug-21 08:30N 59°10' E 010°23'0 0.0
2019-Aug-21 08:00N 59°10' E 010°23'0 0.0
2019-Aug-21 07:29N 59°10' E 010°23'0 0.0
2019-Aug-21 07:00N 59°10' E 010°23'0 0.0
2019-Aug-21 06:29N 59°10' E 010°23'0 0.0
2019-Aug-21 06:00N 59°10' E 010°23'0 0.0
2019-Aug-21 05:30N 59°10' E 010°23'0 0.0
2019-Aug-21 05:00N 59°10' E 010°23'0 0.0
2019-Aug-21 04:29N 59°10' E 010°23'0 0.0
2019-Aug-21 04:00N 59°10' E 010°23'0 0.0
2019-Aug-21 03:29N 59°10' E 010°23'0 0.0
2019-Aug-21 02:59N 59°10' E 010°23'0 0.0
2019-Aug-21 02:30N 59°10' E 010°23'0 0.0
2019-Aug-21 02:00N 59°10' E 010°23'0 0.0
2019-Aug-21 01:29N 59°10' E 010°23'0 0.0
2019-Aug-21 01:00N 59°10' E 010°23'0 0.0
2019-Aug-21 00:30N 59°10' E 010°23'0 0.0
2019-Aug-20 23:59N 59°10' E 010°23'0 0.0
2019-Aug-20 23:29N 59°10' E 010°23'0 0.0
2019-Aug-20 22:59N 59°10' E 010°23'0 0.0
2019-Aug-20 22:30N 59°10' E 010°23'0 0.0
2019-Aug-20 21:59N 59°10' E 010°23'0 0.0
2019-Aug-20 21:30N 59°10' E 010°23'0 0.0
2019-Aug-20 21:00N 59°10' E 010°23'0 0.0
2019-Aug-20 20:29N 59°10' E 010°23'0 0.0
2019-Aug-20 20:00N 59°10' E 010°23'0 0.0
2019-Aug-20 19:30N 59°10' E 010°23'0 0.0
2019-Aug-20 18:59N 59°10' E 010°23'0 0.0
2019-Aug-20 18:29N 59°10' E 010°23'0 0.0
2019-Aug-20 18:00N 59°10' E 010°23'0 0.0
2019-Aug-20 17:29N 59°10' E 010°23'0 0.0
2019-Aug-20 17:00N 59°10' E 010°23'0 0.0
2019-Aug-20 16:29N 59°10' E 010°23'0 0.0
2019-Aug-20 15:59N 59°10' E 010°23'0 0.0
2019-Aug-20 15:30N 59°10' E 010°23'2 3.6
2019-Aug-20 15:00N 59°10' E 010°27'3 5.4
2019-Aug-20 14:30N 59°12' E 010°29'3 6.0
2019-Aug-20 14:00N 59°15' E 010°31'3 5.9
2019-Aug-20 13:30N 59°18' E 010°32'3 5.4
2019-Aug-20 13:00N 59°20' E 010°33'3 5.4
2019-Aug-20 12:30N 59°23' E 010°33'3 5.8
2019-Aug-20 12:00N 59°26' E 010°31'1 2.1
2019-Aug-20 11:30N 59°26' E 010°29'0 0.3
2019-Aug-20 11:00N 59°26' E 010°29'0 0.0
2019-Aug-20 10:30N 59°26' E 010°29'0 0.0
2019-Aug-20 10:00N 59°26' E 010°29'0 0.0
2019-Aug-20 09:28N 59°26' E 010°29'0 0.0
2019-Aug-20 09:00N 59°26' E 010°29'0 0.0
2019-Aug-20 08:27N 59°26' E 010°29'0 0.0
2019-Aug-20 08:00N 59°26' E 010°29'0 0.0
2019-Aug-20 07:30N 59°26' E 010°29'0 0.0
2019-Aug-20 06:58N 59°26' E 010°29'0 0.0
2019-Aug-20 06:30N 59°26' E 010°29'0 0.0
2019-Aug-20 05:57N 59°26' E 010°29'0 0.0
2019-Aug-20 05:28N 59°26' E 010°29'0 0.0
2019-Aug-20 05:01N 59°26' E 010°29'0 0.0
2019-Aug-20 04:28N 59°26' E 010°29'0 0.0
2019-Aug-20 04:00N 59°26' E 010°29'0 0.0
2019-Aug-20 03:28N 59°26' E 010°29'0 0.0
2019-Aug-20 02:57N 59°26' E 010°29'0 0.0
2019-Aug-20 02:27N 59°26' E 010°29'0 0.0
2019-Aug-20 01:57N 59°26' E 010°29'0 0.0
2019-Aug-20 01:30N 59°26' E 010°29'0 0.0
2019-Aug-20 00:57N 59°26' E 010°29'0 0.0
2019-Aug-20 00:31N 59°26' E 010°29'0 0.0
2019-Aug-20 00:00N 59°26' E 010°29'0 0.0
2019-Aug-19 23:30N 59°26' E 010°29'0 0.0
2019-Aug-19 22:58N 59°26' E 010°29'0 0.0
2019-Aug-19 22:27N 59°26' E 010°29'0 0.0
2019-Aug-19 21:57N 59°26' E 010°29'0 0.0
2019-Aug-19 21:30N 59°26' E 010°29'0 0.0
2019-Aug-19 21:00N 59°26' E 010°29'0 0.0
2019-Aug-19 20:27N 59°26' E 010°29'0 0.0
2019-Aug-19 20:00N 59°26' E 010°29'0 0.0
2019-Aug-19 19:31N 59°26' E 010°29'0 0.0
2019-Aug-19 18:57N 59°26' E 010°29'0 0.0
2019-Aug-19 18:31N 59°26' E 010°29'1 1.2
2019-Aug-19 18:00N 59°26' E 010°29'3 6.3
2019-Aug-19 17:30N 59°29' E 010°32'3 5.9
2019-Aug-19 17:00N 59°31' E 010°35'3 5.9
2019-Aug-19 16:30N 59°34' E 010°37'3 5.7
2019-Aug-19 16:00N 59°37' E 010°37'3 5.9
2019-Aug-19 15:30N 59°40' E 010°36'3 6.3
2019-Aug-19 15:00N 59°43' E 010°32'3 6.6
2019-Aug-19 14:30N 59°46' E 010°33'3 6.3
2019-Aug-19 14:00N 59°49' E 010°34'3 6.2
2019-Aug-19 13:30N 59°52' E 010°37'3 6.0
2019-Aug-19 13:00N 59°54' E 010°41'1 1.5
2019-Aug-19 12:30N 59°54' E 010°42'0 0.0
2019-Aug-19 11:59N 59°54' E 010°42'0 0.0
2019-Aug-19 11:29N 59°54' E 010°42'0 0.0
2019-Aug-19 10:58N 59°54' E 010°42'0 0.0
2019-Aug-19 10:28N 59°54' E 010°42'0 0.0
2019-Aug-19 09:58N 59°54' E 010°42'0 0.0
2019-Aug-19 09:29N 59°54' E 010°42'0 0.0
2019-Aug-19 08:58N 59°54' E 010°42'0 0.0
2019-Aug-19 08:28N 59°54' E 010°42'0 0.0
2019-Aug-19 07:58N 59°54' E 010°42'0 0.0
2019-Aug-19 07:28N 59°54' E 010°42'0 0.0
2019-Aug-19 06:58N 59°54' E 010°42'0 0.0
2019-Aug-19 06:28N 59°54' E 010°42'0 0.0
2019-Aug-19 05:58N 59°54' E 010°42'0 0.0
2019-Aug-19 05:28N 59°54' E 010°42'0 0.0
2019-Aug-19 04:59N 59°54' E 010°42'0 0.0
2019-Aug-19 04:29N 59°54' E 010°42'0 0.0
2019-Aug-19 03:58N 59°54' E 010°42'0 0.0
2019-Aug-19 03:29N 59°54' E 010°42'0 0.0
2019-Aug-19 02:59N 59°54' E 010°42'0 0.0
2019-Aug-19 02:29N 59°54' E 010°42'0 0.0
2019-Aug-19 01:58N 59°54' E 010°42'0 0.0
2019-Aug-19 01:28N 59°54' E 010°42'0 0.0
2019-Aug-19 00:59N 59°54' E 010°42'0 0.0
2019-Aug-19 00:28N 59°54' E 010°42'0 0.0
2019-Aug-18 23:59N 59°54' E 010°42'0 0.0
2019-Aug-18 23:28N 59°54' E 010°42'0 0.0
2019-Aug-18 22:58N 59°54' E 010°42'0 0.0
2019-Aug-18 22:29N 59°54' E 010°42'0 0.0
2019-Aug-18 21:59N 59°54' E 010°42'0 0.0
2019-Aug-18 21:29N 59°54' E 010°42'0 0.0
2019-Aug-18 20:59N 59°54' E 010°42'0 0.0
2019-Aug-18 20:29N 59°54' E 010°42'0 0.0
2019-Aug-18 19:58N 59°54' E 010°42'0 0.0
2019-Aug-18 19:28N 59°54' E 010°42'0 0.0
2019-Aug-18 18:59N 59°54' E 010°42'0 0.0
2019-Aug-18 18:28N 59°54' E 010°42'0 0.0
2019-Aug-18 17:58N 59°54' E 010°42'0 0.0
2019-Aug-18 17:28N 59°54' E 010°42'0 0.0
2019-Aug-18 16:58N 59°54' E 010°42'0 0.0
2019-Aug-18 16:29N 59°54' E 010°42'0 0.0
2019-Aug-18 15:59N 59°54' E 010°42'0 0.0
2019-Aug-18 15:29N 59°54' E 010°42'0 0.0
2019-Aug-18 14:58N 59°54' E 010°42'0 0.0
2019-Aug-18 14:29N 59°54' E 010°42'0 0.0
2019-Aug-18 13:59N 59°54' E 010°42'0 0.0
2019-Aug-18 13:28N 59°54' E 010°42'0 0.0
2019-Aug-18 12:58N 59°54' E 010°42'0 0.0
2019-Aug-18 12:29N 59°54' E 010°42'0 0.0
2019-Aug-18 11:59N 59°54' E 010°42'0 0.0
2019-Aug-18 11:29N 59°54' E 010°42'0 0.0
2019-Aug-18 10:58N 59°54' E 010°42'0 0.0
2019-Aug-18 10:28N 59°54' E 010°42'0 0.0
2019-Aug-18 09:58N 59°54' E 010°42'0 0.0
2019-Aug-18 09:29N 59°54' E 010°42'0 0.0
2019-Aug-18 08:58N 59°54' E 010°42'0 0.0
2019-Aug-18 08:28N 59°54' E 010°42'0 0.0
2019-Aug-18 07:59N 59°54' E 010°42'0 0.0
2019-Aug-18 06:58N 59°54' E 010°42'0 0.0
2019-Aug-18 06:28N 59°54' E 010°42'0 0.0
2019-Aug-18 05:58N 59°54' E 010°42'0 0.0
2019-Aug-18 05:28N 59°54' E 010°42'0 0.0
2019-Aug-18 04:58N 59°54' E 010°42'0 0.0
2019-Aug-18 04:29N 59°54' E 010°42'0 0.0
2019-Aug-18 03:58N 59°54' E 010°42'0 0.0
2019-Aug-18 03:29N 59°54' E 010°42'0 0.0
2019-Aug-18 02:58N 59°54' E 010°42'0 0.0
2019-Aug-18 02:28N 59°54' E 010°42'0 0.0
2019-Aug-18 01:58N 59°54' E 010°42'0 0.0
2019-Aug-18 01:28N 59°54' E 010°42'0 0.0
2019-Aug-18 00:58N 59°54' E 010°42'0 0.0
2019-Aug-18 00:28N 59°54' E 010°42'0 0.0
2019-Aug-17 23:58N 59°54' E 010°42'0 0.0
2019-Aug-17 23:28N 59°54' E 010°42'0 0.0
2019-Aug-17 22:59N 59°54' E 010°42'0 0.0
2019-Aug-17 22:29N 59°54' E 010°42'0 0.0
2019-Aug-17 21:58N 59°54' E 010°42'0 0.0
2019-Aug-17 21:28N 59°54' E 010°42'0 0.0
2019-Aug-17 20:58N 59°54' E 010°42'0 0.0
2019-Aug-17 20:28N 59°54' E 010°42'0 0.0
2019-Aug-17 19:58N 59°54' E 010°42'0 0.0
2019-Aug-17 19:29N 59°54' E 010°42'0 0.0
2019-Aug-17 18:58N 59°54' E 010°42'0 0.0
2019-Aug-17 18:28N 59°54' E 010°42'0 0.0
2019-Aug-17 17:28N 59°54' E 010°42'0 0.0
2019-Aug-17 16:58N 59°54' E 010°42'0 0.0
2019-Aug-17 16:29N 59°54' E 010°42'0 0.0
2019-Aug-17 15:59N 59°54' E 010°42'0 0.0
2019-Aug-17 15:29N 59°54' E 010°42'0 0.0
2019-Aug-17 14:59N 59°54' E 010°42'0 0.0
2019-Aug-17 14:29N 59°54' E 010°42'0 0.0
2019-Aug-17 13:58N 59°54' E 010°42'0 0.0
2019-Aug-17 13:28N 59°54' E 010°42'0 0.0
2019-Aug-17 12:59N 59°54' E 010°42'0 0.0
2019-Aug-17 12:28N 59°54' E 010°42'0 0.0
2019-Aug-17 11:59N 59°54' E 010°42'0 0.0
2019-Aug-17 11:29N 59°54' E 010°42'0 0.0
2019-Aug-17 10:58N 59°54' E 010°42'0 0.0
2019-Aug-17 10:29N 59°54' E 010°42'0 0.0
2019-Aug-17 09:58N 59°54' E 010°42'0 0.0
2019-Aug-17 09:28N 59°54' E 010°42'0 0.0
2019-Aug-17 08:58N 59°54' E 010°42'0 0.0
2019-Aug-17 08:29N 59°54' E 010°42'0 0.0
2019-Aug-17 07:59N 59°54' E 010°42'0 0.0
2019-Aug-17 07:28N 59°54' E 010°42'0 0.0
2019-Aug-17 06:58N 59°54' E 010°42'0 0.0
2019-Aug-17 06:28N 59°54' E 010°42'0 0.0
2019-Aug-17 05:58N 59°54' E 010°42'0 0.0
2019-Aug-17 05:28N 59°54' E 010°42'0 0.0
2019-Aug-17 04:59N 59°54' E 010°42'0 0.0
2019-Aug-17 04:22N 59°54' E 010°42'0 0.0
2019-Aug-17 03:58N 59°54' E 010°42'0 0.0
2019-Aug-17 03:28N 59°54' E 010°42'0 0.0
2019-Aug-17 02:58N 59°54' E 010°42'0 0.0
2019-Aug-17 02:29N 59°54' E 010°42'0 0.0
2019-Aug-17 01:58N 59°54' E 010°42'0 0.0
2019-Aug-17 01:28N 59°54' E 010°42'0 0.0
2019-Aug-17 00:58N 59°54' E 010°42'0 0.0
2019-Aug-17 00:28N 59°54' E 010°42'0 0.0
2019-Aug-16 23:58N 59°54' E 010°42'0 0.0
2019-Aug-16 23:28N 59°54' E 010°42'0 0.0
2019-Aug-16 22:59N 59°54' E 010°42'0 0.0
2019-Aug-16 22:29N 59°54' E 010°42'0 0.0
2019-Aug-16 21:59N 59°54' E 010°42'0 0.0
2019-Aug-16 21:28N 59°54' E 010°42'0 0.0
2019-Aug-16 20:58N 59°54' E 010°42'0 0.0
2019-Aug-16 20:28N 59°54' E 010°42'0 0.0
2019-Aug-16 19:58N 59°54' E 010°42'0 0.0
2019-Aug-16 19:29N 59°54' E 010°42'0 0.0
2019-Aug-16 18:58N 59°54' E 010°42'0 0.0
2019-Aug-16 18:29N 59°54' E 010°42'0 0.0
2019-Aug-16 17:59N 59°54' E 010°42'0 0.0
2019-Aug-16 17:29N 59°54' E 010°42'0 0.0
2019-Aug-16 16:58N 59°54' E 010°42'0 0.0
2019-Aug-16 16:28N 59°54' E 010°42'0 0.0
2019-Aug-16 15:58N 59°54' E 010°42'0 0.0
2019-Aug-16 15:29N 59°54' E 010°42'0 0.0
2019-Aug-16 14:59N 59°54' E 010°42'0 0.0
2019-Aug-16 14:28N 59°54' E 010°42'0 0.0
2019-Aug-16 13:58N 59°54' E 010°42'0 0.0
2019-Aug-16 13:28N 59°54' E 010°42'0 0.0
2019-Aug-16 12:59N 59°54' E 010°42'0 0.0
2019-Aug-16 12:29N 59°54' E 010°42'0 0.0
2019-Aug-16 11:58N 59°54' E 010°42'0 0.0
2019-Aug-16 11:29N 59°54' E 010°42'0 0.0
2019-Aug-16 10:53N 59°54' E 010°42'0 0.0
2019-Aug-16 10:28N 59°54' E 010°42'0 0.0
2019-Aug-16 09:58N 59°54' E 010°42'0 0.0
2019-Aug-16 09:29N 59°54' E 010°42'0 0.0
2019-Aug-16 08:58N 59°54' E 010°42'0 0.0
2019-Aug-16 08:28N 59°54' E 010°42'0 0.0
2019-Aug-16 07:58N 59°54' E 010°42'0 0.0
2019-Aug-16 07:28N 59°54' E 010°42'0 0.0
2019-Aug-16 06:58N 59°54' E 010°42'0 0.0
2019-Aug-16 06:28N 59°54' E 010°42'0 0.0
2019-Aug-16 05:58N 59°54' E 010°42'0 0.0
2019-Aug-16 05:28N 59°54' E 010°42'0 0.0
2019-Aug-16 04:59N 59°54' E 010°42'0 0.0
2019-Aug-16 04:28N 59°54' E 010°42'0 0.0
2019-Aug-16 03:58N 59°54' E 010°42'0 0.0
2019-Aug-16 03:28N 59°54' E 010°42'0 0.0
2019-Aug-16 02:58N 59°54' E 010°42'0 0.0
2019-Aug-16 02:29N 59°54' E 010°42'0 0.0
2019-Aug-16 01:58N 59°54' E 010°42'0 0.0
2019-Aug-16 01:29N 59°54' E 010°42'0 0.0
2019-Aug-16 00:59N 59°54' E 010°42'0 0.0
2019-Aug-16 00:29N 59°54' E 010°42'0 0.0
2019-Aug-15 23:58N 59°54' E 010°42'0 0.0
2019-Aug-15 23:28N 59°54' E 010°42'0 0.0
2019-Aug-15 22:59N 59°54' E 010°42'0 0.0
2019-Aug-15 22:29N 59°54' E 010°42'0 0.0
2019-Aug-15 21:58N 59°54' E 010°42'0 0.0
2019-Aug-15 21:29N 59°54' E 010°42'0 0.0
2019-Aug-15 20:59N 59°54' E 010°42'0 0.0
2019-Aug-15 20:28N 59°54' E 010°42'0 0.0
2019-Aug-15 19:58N 59°54' E 010°42'0 0.0
2019-Aug-15 19:28N 59°54' E 010°42'0 0.0
2019-Aug-15 18:59N 59°54' E 010°42'0 0.0
2019-Aug-15 18:28N 59°54' E 010°42'0 0.0
2019-Aug-15 17:56N 59°54' E 010°42'0 0.0
2019-Aug-15 17:29N 59°54' E 010°42'0 0.1
2019-Aug-15 17:00N 59°54' E 010°42'1 2.8
2019-Aug-15 16:30N 59°54' E 010°45'2 4.1
2019-Aug-15 16:00N 59°53' E 010°42'3 6.7
2019-Aug-15 15:29N 59°50' E 010°37'3 7.2
2019-Aug-15 15:00N 59°47' E 010°35'4 7.3
2019-Aug-15 14:30N 59°43' E 010°35'4 7.4
2019-Aug-15 14:00N 59°40' E 010°37'4 7.7
2019-Aug-15 13:30N 59°36' E 010°38'4 7.4
2019-Aug-15 13:00N 59°32' E 010°37'4 7.4
2019-Aug-15 12:31N 59°29' E 010°35'4 7.1
2019-Aug-15 12:01N 59°25' E 010°34'4 7.2
2019-Aug-15 11:31N 59°22' E 010°38'4 7.0
2019-Aug-15 11:00N 59°19' E 010°40'4 7.2
2019-Aug-15 10:31N 59°15' E 010°43'3 5.7
2019-Aug-15 10:00N 59°13' E 010°45'1 2.5
2019-Aug-15 09:30N 59°14' E 010°46'1 1.3
2019-Aug-15 09:00N 59°13' E 010°47'0 0.0
2019-Aug-15 08:28N 59°13' E 010°47'0 0.0
2019-Aug-15 07:59N 59°13' E 010°47'0 0.0
2019-Aug-15 07:29N 59°13' E 010°47'0 0.0
2019-Aug-15 06:58N 59°13' E 010°47'0 0.0
2019-Aug-15 06:28N 59°13' E 010°47'0 0.0
2019-Aug-15 05:58N 59°13' E 010°47'0 0.0
2019-Aug-15 05:29N 59°13' E 010°47'0 0.0
2019-Aug-15 04:59N 59°13' E 010°47'0 0.0
2019-Aug-15 04:28N 59°13' E 010°47'0 0.0
2019-Aug-15 03:59N 59°13' E 010°47'0 0.0
2019-Aug-15 03:29N 59°13' E 010°47'0 0.0
2019-Aug-15 02:58N 59°13' E 010°47'0 0.0
2019-Aug-15 02:29N 59°13' E 010°47'0 0.0
2019-Aug-15 01:58N 59°13' E 010°47'0 0.0
2019-Aug-15 01:28N 59°13' E 010°47'0 0.0
2019-Aug-15 00:58N 59°13' E 010°47'0 0.0
2019-Aug-15 00:28N 59°13' E 010°47'0 0.0
2019-Aug-14 23:59N 59°13' E 010°47'0 0.0
2019-Aug-14 23:28N 59°13' E 010°47'0 0.0
2019-Aug-14 22:59N 59°13' E 010°47'0 0.0
2019-Aug-14 22:28N 59°13' E 010°47'0 0.0
2019-Aug-14 21:59N 59°13' E 010°47'0 0.0
2019-Aug-14 21:28N 59°13' E 010°47'0 0.0
2019-Aug-14 20:58N 59°13' E 010°47'0 0.0
2019-Aug-14 20:28N 59°13' E 010°47'0 0.0
2019-Aug-14 19:58N 59°13' E 010°47'0 0.0
2019-Aug-14 19:28N 59°13' E 010°47'0 0.0
2019-Aug-14 18:59N 59°13' E 010°47'0 0.0
2019-Aug-14 18:30N 59°13' E 010°47'0 0.0
2019-Aug-14 18:00N 59°13' E 010°47'0 0.0
2019-Aug-14 17:29N 59°13' E 010°47'0 0.0
2019-Aug-14 16:59N 59°13' E 010°47'0 0.0
2019-Aug-14 16:30N 59°13' E 010°47'0 0.0
2019-Aug-14 15:59N 59°13' E 010°47'0 0.0
2019-Aug-14 15:29N 59°13' E 010°47'0 0.0
2019-Aug-14 15:00N 59°13' E 010°47'1 2.2
2019-Aug-14 14:30N 59°12' E 010°48'2 5.0
2019-Aug-14 14:00N 59°10' E 010°46'2 3.9
2019-Aug-14 13:30N 59°09' E 010°43'2 4.0
2019-Aug-14 13:00N 59°09' E 010°39'2 3.1
2019-Aug-14 12:30N 59°08' E 010°36'1 2.3
2019-Aug-14 12:00N 59°08' E 010°34'1 1.9
2019-Aug-14 11:30N 59°08' E 010°32'2 3.6
2019-Aug-14 11:00N 59°09' E 010°28'2 4.5
2019-Aug-14 10:30N 59°10' E 010°25'1 1.4
2019-Aug-14 09:58N 59°10' E 010°23'0 0.0
2019-Aug-14 09:28N 59°10' E 010°23'0 0.0
2019-Aug-14 08:59N 59°10' E 010°23'0 0.0
2019-Aug-14 08:28N 59°10' E 010°23'0 0.0
2019-Aug-14 07:58N 59°10' E 010°23'0 0.0
2019-Aug-14 07:29N 59°10' E 010°23'0 0.0
2019-Aug-14 06:58N 59°10' E 010°23'  

Dump ship's entire track history